sensor_id;sensor_type;location;lat;lon;timestamp;P1;durP1;ratioP1;P2;durP2;ratioP2
73585;SDS011;61865;50.232;18.614;2023-09-18T00:00:36;8.60;;;6.32;;
73585;SDS011;61865;50.232;18.614;2023-09-18T00:02:59;13.20;;;5.50;;
73585;SDS011;61865;50.232;18.614;2023-09-18T00:05:23;13.77;;;8.13;;
73585;SDS011;61865;50.232;18.614;2023-09-18T00:07:45;20.10;;;9.55;;
73585;SDS011;61865;50.232;18.614;2023-09-18T00:10:08;14.88;;;11.15;;
73585;SDS011;61865;50.232;18.614;2023-09-18T00:12:30;18.23;;;9.88;;
73585;SDS011;61865;50.232;18.614;2023-09-18T00:14:52;12.95;;;10.23;;
73585;SDS011;61865;50.232;18.614;2023-09-18T00:17:16;14.70;;;9.77;;
73585;SDS011;61865;50.232;18.614;2023-09-18T00:19:39;13.30;;;9.43;;
73585;SDS011;61865;50.232;18.614;2023-09-18T00:22:01;14.75;;;9.65;;
73585;SDS011;61865;50.232;18.614;2023-09-18T00:24:23;13.00;;;9.20;;
73585;SDS011;61865;50.232;18.614;2023-09-18T00:26:46;12.65;;;9.15;;
73585;SDS011;61865;50.232;18.614;2023-09-18T00:29:09;13.75;;;9.85;;
73585;SDS011;61865;50.232;18.614;2023-09-18T00:31:31;16.50;;;10.52;;
73585;SDS011;61865;50.232;18.614;2023-09-18T00:33:55;14.35;;;9.35;;
73585;SDS011;61865;50.232;18.614;2023-09-18T00:36:17;10.30;;;7.22;;
73585;SDS011;61865;50.232;18.614;2023-09-18T00:38:39;29.88;;;6.20;;
73585;SDS011;61865;50.232;18.614;2023-09-18T00:41:01;6.90;;;4.20;;
73585;SDS011;61865;50.232;18.614;2023-09-18T00:43:24;4.60;;;2.90;;
73585;SDS011;61865;50.232;18.614;2023-09-18T00:45:47;106.25;;;9.02;;
73585;SDS011;61865;50.232;18.614;2023-09-18T00:48:10;5.80;;;3.60;;
73585;SDS011;61865;50.232;18.614;2023-09-18T00:50:34;4.85;;;3.35;;
73585;SDS011;61865;50.232;18.614;2023-09-18T00:52:56;9.52;;;4.40;;
73585;SDS011;61865;50.232;18.614;2023-09-18T00:55:19;8.43;;;5.65;;
73585;SDS011;61865;50.232;18.614;2023-09-18T00:57:41;50.47;;;6.07;;
73585;SDS011;61865;50.232;18.614;2023-09-18T01:00:04;7.30;;;5.03;;
73585;SDS011;61865;50.232;18.614;2023-09-18T01:02:27;8.23;;;5.25;;
73585;SDS011;61865;50.232;18.614;2023-09-18T01:04:49;31.63;;;6.88;;
73585;SDS011;61865;50.232;18.614;2023-09-18T01:07:13;12.60;;;7.70;;
73585;SDS011;61865;50.232;18.614;2023-09-18T01:09:35;11.52;;;8.68;;
73585;SDS011;61865;50.232;18.614;2023-09-18T01:12:00;12.25;;;8.82;;
73585;SDS011;61865;50.232;18.614;2023-09-18T01:14:25;82.57;;;12.13;;
73585;SDS011;61865;50.232;18.614;2023-09-18T01:16:50;31.58;;;8.32;;
73585;SDS011;61865;50.232;18.614;2023-09-18T01:19:14;18.85;;;7.10;;
73585;SDS011;61865;50.232;18.614;2023-09-18T01:21:36;172.45;;;14.48;;
73585;SDS011;61865;50.232;18.614;2023-09-18T01:24:00;12.45;;;6.95;;
73585;SDS011;61865;50.232;18.614;2023-09-18T01:26:22;9.48;;;6.55;;
73585;SDS011;61865;50.232;18.614;2023-09-18T01:28:45;9.43;;;5.78;;
73585;SDS011;61865;50.232;18.614;2023-09-18T01:31:07;18.92;;;11.02;;
73585;SDS011;61865;50.232;18.614;2023-09-18T01:33:29;13.60;;;8.85;;
73585;SDS011;61865;50.232;18.614;2023-09-18T01:35:52;15.32;;;8.88;;
73585;SDS011;61865;50.232;18.614;2023-09-18T01:38:15;21.33;;;13.68;;
73585;SDS011;61865;50.232;18.614;2023-09-18T01:40:39;15.57;;;10.15;;
73585;SDS011;61865;50.232;18.614;2023-09-18T01:43:03;69.40;;;9.80;;
73585;SDS011;61865;50.232;18.614;2023-09-18T01:45:27;17.27;;;8.85;;
73585;SDS011;61865;50.232;18.614;2023-09-18T01:47:49;12.05;;;9.07;;
73585;SDS011;61865;50.232;18.614;2023-09-18T01:50:11;15.88;;;9.38;;
73585;SDS011;61865;50.232;18.614;2023-09-18T01:52:34;13.02;;;8.60;;
73585;SDS011;61865;50.232;18.614;2023-09-18T01:54:56;11.60;;;7.55;;
73585;SDS011;61865;50.232;18.614;2023-09-18T01:57:20;35.40;;;8.18;;
73585;SDS011;61865;50.232;18.614;2023-09-18T01:59:42;278.17;;;18.52;;
73585;SDS011;61865;50.232;18.614;2023-09-18T02:02:05;11.07;;;7.13;;
73585;SDS011;61865;50.232;18.614;2023-09-18T02:04:29;45.50;;;5.63;;
73585;SDS011;61865;50.232;18.614;2023-09-18T02:06:52;35.17;;;5.80;;
73585;SDS011;61865;50.232;18.614;2023-09-18T02:09:14;8.02;;;4.50;;
73585;SDS011;61865;50.232;18.614;2023-09-18T02:11:37;15.55;;;5.90;;
73585;SDS011;61865;50.232;18.614;2023-09-18T02:14:01;9.63;;;5.30;;
73585;SDS011;61865;50.232;18.614;2023-09-18T02:16:24;9.55;;;5.25;;
73585;SDS011;61865;50.232;18.614;2023-09-18T02:18:49;13.73;;;6.35;;
73585;SDS011;61865;50.232;18.614;2023-09-18T02:21:13;15.85;;;5.85;;
73585;SDS011;61865;50.232;18.614;2023-09-18T02:23:41;12.30;;;6.75;;
73585;SDS011;61865;50.232;18.614;2023-09-18T02:26:03;43.78;;;7.22;;
73585;SDS011;61865;50.232;18.614;2023-09-18T02:28:25;17.85;;;5.78;;
73585;SDS011;61865;50.232;18.614;2023-09-18T02:30:49;6.15;;;4.25;;
73585;SDS011;61865;50.232;18.614;2023-09-18T02:33:12;8.18;;;4.95;;
73585;SDS011;61865;50.232;18.614;2023-09-18T02:35:37;9.07;;;5.13;;
73585;SDS011;61865;50.232;18.614;2023-09-18T02:37:59;13.23;;;7.50;;
73585;SDS011;61865;50.232;18.614;2023-09-18T02:40:22;13.85;;;8.88;;
73585;SDS011;61865;50.232;18.614;2023-09-18T02:42:45;14.23;;;7.97;;
73585;SDS011;61865;50.232;18.614;2023-09-18T02:45:07;29.90;;;7.93;;
73585;SDS011;61865;50.232;18.614;2023-09-18T02:47:31;15.60;;;8.77;;
73585;SDS011;61865;50.232;18.614;2023-09-18T02:49:54;11.55;;;8.82;;
73585;SDS011;61865;50.232;18.614;2023-09-18T02:52:16;14.95;;;9.32;;
73585;SDS011;61865;50.232;18.614;2023-09-18T02:54:38;18.42;;;9.40;;
73585;SDS011;61865;50.232;18.614;2023-09-18T02:57:01;16.02;;;9.27;;
73585;SDS011;61865;50.232;18.614;2023-09-18T02:59:23;11.13;;;8.15;;
73585;SDS011;61865;50.232;18.614;2023-09-18T03:01:46;56.83;;;7.88;;
73585;SDS011;61865;50.232;18.614;2023-09-18T03:04:10;11.23;;;8.00;;
73585;SDS011;61865;50.232;18.614;2023-09-18T03:06:32;14.98;;;8.75;;
73585;SDS011;61865;50.232;18.614;2023-09-18T03:08:55;13.90;;;9.07;;
73585;SDS011;61865;50.232;18.614;2023-09-18T03:11:17;15.65;;;9.50;;
73585;SDS011;61865;50.232;18.614;2023-09-18T03:13:42;27.83;;;9.55;;
73585;SDS011;61865;50.232;18.614;2023-09-18T03:16:05;13.07;;;8.02;;
73585;SDS011;61865;50.232;18.614;2023-09-18T03:18:28;55.20;;;10.57;;
73585;SDS011;61865;50.232;18.614;2023-09-18T03:20:51;14.20;;;8.70;;
73585;SDS011;61865;50.232;18.614;2023-09-18T03:23:14;130.35;;;13.48;;
73585;SDS011;61865;50.232;18.614;2023-09-18T03:25:36;17.65;;;6.20;;
73585;SDS011;61865;50.232;18.614;2023-09-18T03:27:58;24.35;;;5.15;;
73585;SDS011;61865;50.232;18.614;2023-09-18T03:30:21;12.73;;;9.43;;
73585;SDS011;61865;50.232;18.614;2023-09-18T03:32:44;15.02;;;9.90;;
73585;SDS011;61865;50.232;18.614;2023-09-18T03:35:08;42.40;;;10.57;;
73585;SDS011;61865;50.232;18.614;2023-09-18T03:37:39;20.23;;;10.20;;
73585;SDS011;61865;50.232;18.614;2023-09-18T03:40:01;17.63;;;9.40;;
73585;SDS011;61865;50.232;18.614;2023-09-18T03:42:23;201.32;;;15.35;;
73585;SDS011;61865;50.232;18.614;2023-09-18T03:44:46;17.08;;;9.27;;
73585;SDS011;61865;50.232;18.614;2023-09-18T03:47:08;14.10;;;8.50;;
73585;SDS011;61865;50.232;18.614;2023-09-18T03:49:30;12.50;;;7.93;;
73585;SDS011;61865;50.232;18.614;2023-09-18T03:51:53;10.65;;;8.27;;
73585;SDS011;61865;50.232;18.614;2023-09-18T03:54:16;190.63;;;14.60;;
73585;SDS011;61865;50.232;18.614;2023-09-18T03:56:39;13.07;;;8.95;;
73585;SDS011;61865;50.232;18.614;2023-09-18T03:59:01;118.53;;;9.52;;
73585;SDS011;61865;50.232;18.614;2023-09-18T04:01:24;86.13;;;9.23;;
73585;SDS011;61865;50.232;18.614;2023-09-18T04:03:47;47.22;;;7.10;;
73585;SDS011;61865;50.232;18.614;2023-09-18T04:06:09;10.15;;;6.07;;
73585;SDS011;61865;50.232;18.614;2023-09-18T04:08:31;130.30;;;9.85;;
73585;SDS011;61865;50.232;18.614;2023-09-18T04:10:55;43.97;;;7.35;;
73585;SDS011;61865;50.232;18.614;2023-09-18T04:13:18;43.83;;;6.05;;
73585;SDS011;61865;50.232;18.614;2023-09-18T04:15:40;13.90;;;5.18;;
73585;SDS011;61865;50.232;18.614;2023-09-18T04:18:03;6.13;;;4.03;;
73585;SDS011;61865;50.232;18.614;2023-09-18T04:20:25;22.00;;;9.13;;
73585;SDS011;61865;50.232;18.614;2023-09-18T04:23:16;16.42;;;8.63;;
73585;SDS011;61865;50.232;18.614;2023-09-18T04:25:30;16.05;;;7.82;;
73585;SDS011;61865;50.232;18.614;2023-09-18T04:27:54;10.02;;;7.15;;
73585;SDS011;61865;50.232;18.614;2023-09-18T04:30:17;10.00;;;6.47;;
73585;SDS011;61865;50.232;18.614;2023-09-18T04:32:40;9.18;;;6.60;;
73585;SDS011;61865;50.232;18.614;2023-09-18T04:35:03;12.45;;;7.43;;
73585;SDS011;61865;50.232;18.614;2023-09-18T04:37:26;11.40;;;6.75;;
73585;SDS011;61865;50.232;18.614;2023-09-18T04:39:49;11.93;;;8.05;;
73585;SDS011;61865;50.232;18.614;2023-09-18T04:42:11;11.52;;;7.63;;
73585;SDS011;61865;50.232;18.614;2023-09-18T04:44:34;9.93;;;6.53;;
73585;SDS011;61865;50.232;18.614;2023-09-18T04:46:57;13.18;;;8.10;;
73585;SDS011;61865;50.232;18.614;2023-09-18T04:49:19;10.60;;;6.90;;
73585;SDS011;61865;50.232;18.614;2023-09-18T04:51:43;12.65;;;7.40;;
73585;SDS011;61865;50.232;18.614;2023-09-18T04:54:06;12.70;;;8.57;;
73585;SDS011;61865;50.232;18.614;2023-09-18T04:56:28;19.35;;;9.98;;
73585;SDS011;61865;50.232;18.614;2023-09-18T04:58:50;12.25;;;8.88;;
73585;SDS011;61865;50.232;18.614;2023-09-18T05:01:14;16.48;;;9.88;;
73585;SDS011;61865;50.232;18.614;2023-09-18T05:03:37;22.35;;;9.15;;
73585;SDS011;61865;50.232;18.614;2023-09-18T05:06:00;14.18;;;9.60;;
73585;SDS011;61865;50.232;18.614;2023-09-18T05:08:23;10.23;;;7.28;;
73585;SDS011;61865;50.232;18.614;2023-09-18T05:10:45;18.20;;;8.00;;
73585;SDS011;61865;50.232;18.614;2023-09-18T05:13:08;16.23;;;10.05;;
73585;SDS011;61865;50.232;18.614;2023-09-18T05:15:30;16.52;;;9.63;;
73585;SDS011;61865;50.232;18.614;2023-09-18T05:17:55;11.88;;;8.25;;
73585;SDS011;61865;50.232;18.614;2023-09-18T05:20:18;12.32;;;8.95;;
73585;SDS011;61865;50.232;18.614;2023-09-18T05:22:40;14.52;;;10.52;;
73585;SDS011;61865;50.232;18.614;2023-09-18T05:25:03;13.45;;;9.95;;
73585;SDS011;61865;50.232;18.614;2023-09-18T05:27:26;13.88;;;10.43;;
73585;SDS011;61865;50.232;18.614;2023-09-18T05:29:49;14.20;;;10.70;;
73585;SDS011;61865;50.232;18.614;2023-09-18T05:32:11;15.70;;;10.88;;
73585;SDS011;61865;50.232;18.614;2023-09-18T05:34:35;15.00;;;11.57;;
73585;SDS011;61865;50.232;18.614;2023-09-18T05:36:57;14.27;;;11.70;;
73585;SDS011;61865;50.232;18.614;2023-09-18T05:39:19;20.90;;;12.32;;
73585;SDS011;61865;50.232;18.614;2023-09-18T05:41:42;17.45;;;13.25;;
73585;SDS011;61865;50.232;18.614;2023-09-18T05:44:04;17.70;;;13.23;;
73585;SDS011;61865;50.232;18.614;2023-09-18T05:46:27;25.15;;;13.27;;
73585;SDS011;61865;50.232;18.614;2023-09-18T05:48:50;18.00;;;13.38;;
73585;SDS011;61865;50.232;18.614;2023-09-18T05:51:15;20.90;;;13.40;;
73585;SDS011;61865;50.232;18.614;2023-09-18T05:53:37;21.30;;;14.05;;
73585;SDS011;61865;50.232;18.614;2023-09-18T05:56:02;18.45;;;13.02;;
73585;SDS011;61865;50.232;18.614;2023-09-18T05:58:25;20.55;;;13.65;;
73585;SDS011;61865;50.232;18.614;2023-09-18T06:00:48;18.52;;;13.05;;
73585;SDS011;61865;50.232;18.614;2023-09-18T06:03:10;19.88;;;14.50;;
73585;SDS011;61865;50.232;18.614;2023-09-18T06:05:32;25.35;;;13.50;;
73585;SDS011;61865;50.232;18.614;2023-09-18T06:07:57;20.48;;;12.38;;
73585;SDS011;61865;50.232;18.614;2023-09-18T06:10:19;21.50;;;14.15;;
73585;SDS011;61865;50.232;18.614;2023-09-18T06:12:41;18.92;;;13.05;;
73585;SDS011;61865;50.232;18.614;2023-09-18T06:15:04;28.88;;;14.23;;
73585;SDS011;61865;50.232;18.614;2023-09-18T06:17:28;26.13;;;14.48;;
73585;SDS011;61865;50.232;18.614;2023-09-18T06:19:53;18.38;;;13.52;;
73585;SDS011;61865;50.232;18.614;2023-09-18T06:22:16;17.25;;;12.05;;
73585;SDS011;61865;50.232;18.614;2023-09-18T06:24:40;19.05;;;12.32;;
73585;SDS011;61865;50.232;18.614;2023-09-18T06:27:02;18.60;;;12.57;;
73585;SDS011;61865;50.232;18.614;2023-09-18T06:29:25;19.90;;;13.18;;
73585;SDS011;61865;50.232;18.614;2023-09-18T06:31:47;16.30;;;13.35;;
73585;SDS011;61865;50.232;18.614;2023-09-18T06:34:10;15.65;;;11.90;;
73585;SDS011;61865;50.232;18.614;2023-09-18T06:36:32;21.65;;;12.48;;
73585;SDS011;61865;50.232;18.614;2023-09-18T06:38:54;19.33;;;12.93;;
73585;SDS011;61865;50.232;18.614;2023-09-18T06:41:18;20.05;;;13.40;;
73585;SDS011;61865;50.232;18.614;2023-09-18T06:43:40;17.95;;;12.73;;
73585;SDS011;61865;50.232;18.614;2023-09-18T06:46:02;16.67;;;11.73;;
73585;SDS011;61865;50.232;18.614;2023-09-18T06:48:25;17.27;;;12.25;;
73585;SDS011;61865;50.232;18.614;2023-09-18T06:50:52;17.65;;;12.15;;
73585;SDS011;61865;50.232;18.614;2023-09-18T06:53:14;14.98;;;11.55;;
73585;SDS011;61865;50.232;18.614;2023-09-18T06:55:36;15.45;;;12.50;;
73585;SDS011;61865;50.232;18.614;2023-09-18T06:58:00;18.45;;;12.02;;
73585;SDS011;61865;50.232;18.614;2023-09-18T07:00:23;17.83;;;12.25;;
73585;SDS011;61865;50.232;18.614;2023-09-18T07:02:45;16.27;;;11.90;;
73585;SDS011;61865;50.232;18.614;2023-09-18T07:05:09;15.98;;;11.73;;
73585;SDS011;61865;50.232;18.614;2023-09-18T07:07:31;14.73;;;11.13;;
73585;SDS011;61865;50.232;18.614;2023-09-18T07:09:54;16.38;;;11.35;;
73585;SDS011;61865;50.232;18.614;2023-09-18T07:12:16;14.68;;;11.23;;
73585;SDS011;61865;50.232;18.614;2023-09-18T07:14:41;14.95;;;11.55;;
73585;SDS011;61865;50.232;18.614;2023-09-18T07:17:03;16.67;;;10.43;;
73585;SDS011;61865;50.232;18.614;2023-09-18T07:19:25;17.23;;;12.50;;
73585;SDS011;61865;50.232;18.614;2023-09-18T07:21:47;14.63;;;10.30;;
73585;SDS011;61865;50.232;18.614;2023-09-18T07:24:10;16.55;;;11.23;;
73585;SDS011;61865;50.232;18.614;2023-09-18T07:26:36;12.98;;;11.35;;
73585;SDS011;61865;50.232;18.614;2023-09-18T07:28:58;12.98;;;10.45;;
73585;SDS011;61865;50.232;18.614;2023-09-18T07:31:23;20.42;;;11.77;;
73585;SDS011;61865;50.232;18.614;2023-09-18T07:33:45;13.57;;;10.02;;
73585;SDS011;61865;50.232;18.614;2023-09-18T07:36:08;26.50;;;11.27;;
73585;SDS011;61865;50.232;18.614;2023-09-18T07:38:31;13.13;;;10.75;;
73585;SDS011;61865;50.232;18.614;2023-09-18T07:40:53;19.23;;;10.98;;
73585;SDS011;61865;50.232;18.614;2023-09-18T07:43:19;14.60;;;11.07;;
73585;SDS011;61865;50.232;18.614;2023-09-18T07:45:42;18.42;;;11.52;;
73585;SDS011;61865;50.232;18.614;2023-09-18T07:48:06;14.27;;;10.55;;
73585;SDS011;61865;50.232;18.614;2023-09-18T07:50:28;17.60;;;10.38;;
73585;SDS011;61865;50.232;18.614;2023-09-18T07:52:52;12.40;;;9.80;;
73585;SDS011;61865;50.232;18.614;2023-09-18T07:55:17;16.40;;;10.98;;
73585;SDS011;61865;50.232;18.614;2023-09-18T07:57:40;16.63;;;10.02;;
73585;SDS011;61865;50.232;18.614;2023-09-18T08:00:05;14.00;;;10.13;;
73585;SDS011;61865;50.232;18.614;2023-09-18T08:02:32;12.45;;;9.43;;
73585;SDS011;61865;50.232;18.614;2023-09-18T08:04:56;18.77;;;10.30;;
73585;SDS011;61865;50.232;18.614;2023-09-18T08:07:18;12.10;;;9.73;;
73585;SDS011;61865;50.232;18.614;2023-09-18T08:09:41;14.50;;;9.65;;
73585;SDS011;61865;50.232;18.614;2023-09-18T08:12:04;13.27;;;10.80;;
73585;SDS011;61865;50.232;18.614;2023-09-18T08:14:27;12.93;;;9.45;;
73585;SDS011;61865;50.232;18.614;2023-09-18T08:16:55;13.30;;;10.65;;
73585;SDS011;61865;50.232;18.614;2023-09-18T08:19:18;16.00;;;10.43;;
73585;SDS011;61865;50.232;18.614;2023-09-18T08:21:42;13.35;;;10.55;;
73585;SDS011;61865;50.232;18.614;2023-09-18T08:24:04;13.68;;;9.70;;
73585;SDS011;61865;50.232;18.614;2023-09-18T08:26:27;18.85;;;10.00;;
73585;SDS011;61865;50.232;18.614;2023-09-18T08:28:49;14.88;;;10.68;;
73585;SDS011;61865;50.232;18.614;2023-09-18T08:31:11;15.02;;;9.50;;
73585;SDS011;61865;50.232;18.614;2023-09-18T08:33:34;18.45;;;10.15;;
73585;SDS011;61865;50.232;18.614;2023-09-18T08:35:56;12.63;;;10.00;;
73585;SDS011;61865;50.232;18.614;2023-09-18T08:38:20;11.73;;;8.52;;
73585;SDS011;61865;50.232;18.614;2023-09-18T08:40:42;13.95;;;9.00;;
73585;SDS011;61865;50.232;18.614;2023-09-18T08:43:05;12.57;;;10.23;;
73585;SDS011;61865;50.232;18.614;2023-09-18T08:45:27;14.15;;;8.93;;
73585;SDS011;61865;50.232;18.614;2023-09-18T08:47:54;14.57;;;8.95;;
73585;SDS011;61865;50.232;18.614;2023-09-18T08:50:16;14.27;;;10.18;;
73585;SDS011;61865;50.232;18.614;2023-09-18T08:52:39;15.70;;;8.80;;
73585;SDS011;61865;50.232;18.614;2023-09-18T08:55:03;13.98;;;10.30;;
73585;SDS011;61865;50.232;18.614;2023-09-18T08:57:26;18.25;;;9.98;;
73585;SDS011;61865;50.232;18.614;2023-09-18T08:59:50;13.82;;;9.90;;
73585;SDS011;61865;50.232;18.614;2023-09-18T09:02:12;13.38;;;10.23;;
73585;SDS011;61865;50.232;18.614;2023-09-18T09:04:35;15.70;;;10.27;;
73585;SDS011;61865;50.232;18.614;2023-09-18T09:06:57;12.70;;;10.13;;
73585;SDS011;61865;50.232;18.614;2023-09-18T09:09:19;10.48;;;9.10;;
73585;SDS011;61865;50.232;18.614;2023-09-18T09:11:49;16.45;;;9.88;;
73585;SDS011;61865;50.232;18.614;2023-09-18T09:14:12;16.98;;;9.27;;
73585;SDS011;61865;50.232;18.614;2023-09-18T09:16:39;20.58;;;9.77;;
73585;SDS011;61865;50.232;18.614;2023-09-18T09:19:01;13.32;;;9.02;;
73585;SDS011;61865;50.232;18.614;2023-09-18T09:21:24;13.77;;;9.80;;
73585;SDS011;61865;50.232;18.614;2023-09-18T09:24:00;16.65;;;8.88;;
73585;SDS011;61865;50.232;18.614;2023-09-18T09:26:22;11.98;;;8.80;;
73585;SDS011;61865;50.232;18.614;2023-09-18T09:28:46;18.58;;;9.48;;
73585;SDS011;61865;50.232;18.614;2023-09-18T09:31:09;11.98;;;8.57;;
73585;SDS011;61865;50.232;18.614;2023-09-18T09:33:32;12.07;;;8.57;;
73585;SDS011;61865;50.232;18.614;2023-09-18T09:35:55;12.70;;;8.93;;
73585;SDS011;61865;50.232;18.614;2023-09-18T09:38:18;13.73;;;9.75;;
73585;SDS011;61865;50.232;18.614;2023-09-18T09:40:42;11.93;;;9.73;;
73585;SDS011;61865;50.232;18.614;2023-09-18T09:43:05;19.17;;;9.57;;
73585;SDS011;61865;50.232;18.614;2023-09-18T09:45:31;15.00;;;8.57;;
73585;SDS011;61865;50.232;18.614;2023-09-18T09:47:55;10.70;;;9.02;;
73585;SDS011;61865;50.232;18.614;2023-09-18T09:50:18;20.85;;;9.25;;
73585;SDS011;61865;50.232;18.614;2023-09-18T09:52:42;13.05;;;9.10;;
73585;SDS011;61865;50.232;18.614;2023-09-18T09:55:07;13.43;;;9.05;;
73585;SDS011;61865;50.232;18.614;2023-09-18T09:57:46;16.98;;;8.77;;
73585;SDS011;61865;50.232;18.614;2023-09-18T10:00:09;13.80;;;8.50;;
73585;SDS011;61865;50.232;18.614;2023-09-18T10:02:47;14.45;;;8.18;;
73585;SDS011;61865;50.232;18.614;2023-09-18T10:05:09;14.32;;;8.80;;
73585;SDS011;61865;50.232;18.614;2023-09-18T10:07:32;11.30;;;8.57;;
73585;SDS011;61865;50.232;18.614;2023-09-18T10:09:54;14.23;;;8.55;;
73585;SDS011;61865;50.232;18.614;2023-09-18T10:12:17;13.82;;;9.20;;
73585;SDS011;61865;50.232;18.614;2023-09-18T10:14:41;13.23;;;9.43;;
73585;SDS011;61865;50.232;18.614;2023-09-18T10:17:08;12.15;;;9.00;;
73585;SDS011;61865;50.232;18.614;2023-09-18T10:19:37;13.82;;;9.35;;
73585;SDS011;61865;50.232;18.614;2023-09-18T10:22:12;13.45;;;9.45;;
73585;SDS011;61865;50.232;18.614;2023-09-18T10:24:40;9.63;;;8.02;;
73585;SDS011;61865;50.232;18.614;2023-09-18T10:27:03;15.35;;;9.00;;
73585;SDS011;61865;50.232;18.614;2023-09-18T10:29:26;13.50;;;8.68;;
73585;SDS011;61865;50.232;18.614;2023-09-18T10:31:50;15.13;;;8.95;;
73585;SDS011;61865;50.232;18.614;2023-09-18T10:34:13;13.10;;;8.80;;
73585;SDS011;61865;50.232;18.614;2023-09-18T10:36:37;15.25;;;9.07;;
73585;SDS011;61865;50.232;18.614;2023-09-18T10:38:59;13.57;;;8.60;;
73585;SDS011;61865;50.232;18.614;2023-09-18T10:41:28;11.70;;;9.10;;
73585;SDS011;61865;50.232;18.614;2023-09-18T10:43:51;11.35;;;8.60;;
73585;SDS011;61865;50.232;18.614;2023-09-18T10:46:16;9.48;;;8.23;;
73585;SDS011;61865;50.232;18.614;2023-09-18T10:48:39;12.55;;;9.10;;
73585;SDS011;61865;50.232;18.614;2023-09-18T10:51:02;15.40;;;9.30;;
73585;SDS011;61865;50.232;18.614;2023-09-18T10:53:27;13.98;;;9.77;;
73585;SDS011;61865;50.232;18.614;2023-09-18T10:55:49;20.88;;;8.95;;
73585;SDS011;61865;50.232;18.614;2023-09-18T10:58:12;10.68;;;8.43;;
73585;SDS011;61865;50.232;18.614;2023-09-18T11:00:44;12.23;;;8.75;;
73585;SDS011;61865;50.232;18.614;2023-09-18T11:03:11;15.02;;;8.50;;
73585;SDS011;61865;50.232;18.614;2023-09-18T11:05:33;9.93;;;7.85;;
73585;SDS011;61865;50.232;18.614;2023-09-18T11:10:56;17.95;;;8.90;;
73585;SDS011;61865;50.232;18.614;2023-09-18T11:13:27;11.30;;;8.23;;
73585;SDS011;61865;50.232;18.614;2023-09-18T11:15:50;10.45;;;7.57;;
73585;SDS011;61865;50.232;18.614;2023-09-18T11:18:13;9.30;;;7.78;;
73585;SDS011;61865;50.232;18.614;2023-09-18T11:20:42;11.20;;;7.40;;
73585;SDS011;61865;50.232;18.614;2023-09-18T11:23:10;9.93;;;8.20;;
73585;SDS011;61865;50.232;18.614;2023-09-18T11:25:37;10.65;;;8.13;;
73585;SDS011;61865;50.232;18.614;2023-09-18T11:28:03;11.20;;;7.47;;
73585;SDS011;61865;50.232;18.614;2023-09-18T11:30:27;13.38;;;8.45;;
73585;SDS011;61865;50.232;18.614;2023-09-18T11:32:50;8.32;;;6.97;;
73585;SDS011;61865;50.232;18.614;2023-09-18T11:35:12;10.05;;;8.15;;
73585;SDS011;61865;50.232;18.614;2023-09-18T11:37:37;11.18;;;7.90;;
73585;SDS011;61865;50.232;18.614;2023-09-18T11:39:59;12.60;;;7.13;;
73585;SDS011;61865;50.232;18.614;2023-09-18T11:42:24;18.38;;;7.65;;
73585;SDS011;61865;50.232;18.614;2023-09-18T11:44:50;13.60;;;8.18;;
73585;SDS011;61865;50.232;18.614;2023-09-18T11:47:13;13.52;;;8.30;;
73585;SDS011;61865;50.232;18.614;2023-09-18T11:49:39;11.82;;;7.97;;
73585;SDS011;61865;50.232;18.614;2023-09-18T11:52:04;12.23;;;6.60;;
73585;SDS011;61865;50.232;18.614;2023-09-18T11:54:27;12.20;;;7.50;;
73585;SDS011;61865;50.232;18.614;2023-09-18T11:56:50;8.35;;;6.40;;
73585;SDS011;61865;50.232;18.614;2023-09-18T11:59:12;10.82;;;5.65;;
73585;SDS011;61865;50.232;18.614;2023-09-18T12:01:36;9.20;;;6.57;;
73585;SDS011;61865;50.232;18.614;2023-09-18T12:04:00;12.95;;;7.18;;
73585;SDS011;61865;50.232;18.614;2023-09-18T12:06:22;12.15;;;6.40;;
73585;SDS011;61865;50.232;18.614;2023-09-18T12:08:44;11.90;;;6.70;;
73585;SDS011;61865;50.232;18.614;2023-09-18T12:11:08;14.18;;;5.82;;
73585;SDS011;61865;50.232;18.614;2023-09-18T12:13:30;8.77;;;5.97;;
73585;SDS011;61865;50.232;18.614;2023-09-18T12:15:55;11.10;;;5.55;;
73585;SDS011;61865;50.232;18.614;2023-09-18T12:18:20;8.00;;;5.57;;
73585;SDS011;61865;50.232;18.614;2023-09-18T12:20:46;8.98;;;5.70;;
73585;SDS011;61865;50.232;18.614;2023-09-18T12:23:09;9.30;;;6.00;;
73585;SDS011;61865;50.232;18.614;2023-09-18T12:25:31;14.60;;;5.78;;
73585;SDS011;61865;50.232;18.614;2023-09-18T12:27:53;11.63;;;5.97;;
73585;SDS011;61865;50.232;18.614;2023-09-18T12:30:16;10.77;;;5.60;;
73585;SDS011;61865;50.232;18.614;2023-09-18T12:32:40;8.05;;;5.75;;
73585;SDS011;61865;50.232;18.614;2023-09-18T12:35:04;8.80;;;5.90;;
73585;SDS011;61865;50.232;18.614;2023-09-18T12:37:27;11.45;;;6.18;;
73585;SDS011;61865;50.232;18.614;2023-09-18T12:39:50;10.27;;;5.68;;
73585;SDS011;61865;50.232;18.614;2023-09-18T12:42:12;8.60;;;5.82;;
73585;SDS011;61865;50.232;18.614;2023-09-18T12:44:35;7.75;;;6.03;;
73585;SDS011;61865;50.232;18.614;2023-09-18T12:46:57;7.82;;;5.50;;
73585;SDS011;61865;50.232;18.614;2023-09-18T12:49:20;8.55;;;5.40;;
73585;SDS011;61865;50.232;18.614;2023-09-18T12:51:53;11.38;;;5.47;;
73585;SDS011;61865;50.232;18.614;2023-09-18T12:54:15;11.25;;;5.55;;
73585;SDS011;61865;50.232;18.614;2023-09-18T12:56:40;8.00;;;5.78;;
73585;SDS011;61865;50.232;18.614;2023-09-18T12:59:02;8.80;;;5.38;;
73585;SDS011;61865;50.232;18.614;2023-09-18T13:01:25;7.00;;;5.20;;
73585;SDS011;61865;50.232;18.614;2023-09-18T13:03:47;6.53;;;5.15;;
73585;SDS011;61865;50.232;18.614;2023-09-18T13:06:10;8.98;;;5.20;;
73585;SDS011;61865;50.232;18.614;2023-09-18T13:08:34;7.32;;;4.82;;
73585;SDS011;61865;50.232;18.614;2023-09-18T13:10:56;15.50;;;5.65;;
73585;SDS011;61865;50.232;18.614;2023-09-18T13:13:18;7.43;;;5.22;;
73585;SDS011;61865;50.232;18.614;2023-09-18T13:15:41;7.55;;;6.00;;
73585;SDS011;61865;50.232;18.614;2023-09-18T13:18:09;11.77;;;5.65;;
73585;SDS011;61865;50.232;18.614;2023-09-18T13:20:31;7.75;;;5.82;;
73585;SDS011;61865;50.232;18.614;2023-09-18T13:22:54;7.20;;;4.93;;
73585;SDS011;61865;50.232;18.614;2023-09-18T13:25:21;8.32;;;6.15;;
73585;SDS011;61865;50.232;18.614;2023-09-18T13:27:44;9.32;;;5.65;;
73585;SDS011;61865;50.232;18.614;2023-09-18T13:30:08;7.95;;;5.53;;
73585;SDS011;61865;50.232;18.614;2023-09-18T13:32:30;12.20;;;5.75;;
73585;SDS011;61865;50.232;18.614;2023-09-18T13:34:53;7.95;;;5.75;;
73585;SDS011;61865;50.232;18.614;2023-09-18T13:37:15;8.63;;;5.85;;
73585;SDS011;61865;50.232;18.614;2023-09-18T13:39:40;7.50;;;5.15;;
73585;SDS011;61865;50.232;18.614;2023-09-18T13:42:04;7.45;;;5.18;;
73585;SDS011;61865;50.232;18.614;2023-09-18T13:44:27;11.70;;;6.00;;
73585;SDS011;61865;50.232;18.614;2023-09-18T13:46:49;6.70;;;5.40;;
73585;SDS011;61865;50.232;18.614;2023-09-18T13:49:11;7.25;;;4.85;;
73585;SDS011;61865;50.232;18.614;2023-09-18T13:51:33;7.82;;;5.88;;
73585;SDS011;61865;50.232;18.614;2023-09-18T13:53:56;8.25;;;5.50;;
73585;SDS011;61865;50.232;18.614;2023-09-18T13:56:18;11.65;;;5.57;;
73585;SDS011;61865;50.232;18.614;2023-09-18T13:58:42;9.73;;;5.47;;
73585;SDS011;61865;50.232;18.614;2023-09-18T14:01:04;8.70;;;5.15;;